Time;durP1;ratioP1;P1;durP2;ratioP2;P2;SDS_P1;SDS_P2;PMS_P1;PMS_P2;Temp;Humidity;BMP_temperature;BMP_pressure;BME280_temperature;BME280_humidity;BME280_pressure;Samples;Min_cycle;Max_cycle;Signal;HPM_P1;HPM_P2
2023/04/05 00:00:41;;;;;;;18.67;16.42;;;;;;;5.23;61.52;102316.47;5111221;28;20628;-57
2023/04/05 00:03:08;;;;;;;17.33;15.73;;;;;;;5.36;61.01;102313.63;5111896;28;20028;-57
2023/04/05 00:05:35;;;;;;;18.83;17.02;;;;;;;5.44;61.26;102330.16;5119742;27;20416;-57
2023/04/05 00:08:02;;;;;;;18.60;16.60;;;;;;;5.43;60.46;102339.84;5117128;27;20520;-57
2023/04/05 00:10:28;;;;;;;18.10;15.13;;;;;;;5.46;60.31;102321.31;5109018;28;20031;-57
2023/04/05 00:12:53;;;;;;;20.17;15.93;;;;;;;5.53;60.01;102314.19;5115433;28;20016;-57
2023/04/05 00:15:19;;;;;;;18.65;16.15;;;;;;;5.41;60.26;102327.56;5115901;27;20458;-57
2023/04/05 00:17:46;;;;;;;18.33;16.42;;;;;;;5.43;59.55;102325.78;5096977;28;20027;-58
2023/04/05 00:20:11;;;;;;;17.35;15.55;;;;;;;5.40;59.84;102333.75;5096762;28;20030;-57
2023/04/05 00:22:40;;;;;;;15.95;14.32;;;;;;;5.38;59.93;102325.00;5115323;28;20027;-57
2023/04/05 00:25:06;;;;;;;19.45;17.38;;;;;;;5.27;60.12;102305.88;5116288;27;20027;-57
2023/04/05 00:27:31;;;;;;;18.98;17.15;;;;;;;5.16;60.15;102321.88;5115586;27;20447;-58
2023/04/05 00:29:57;;;;;;;17.65;15.95;;;;;;;4.96;61.07;102319.53;5096668;28;20423;-58
2023/04/05 00:32:22;;;;;;;17.38;13.20;;;;;;;5.15;60.39;102307.81;5114693;28;20030;-57
2023/04/05 00:34:49;;;;;;;17.67;16.02;;;;;;;5.16;60.75;102314.81;5114835;27;20084;-57
2023/04/05 00:37:14;;;;;;;15.32;13.48;;;;;;;5.12;60.56;102314.91;5111758;28;20114;-58
2023/04/05 00:39:40;;;;;;;17.77;15.93;;;;;;;4.99;61.53;102314.22;5114924;28;20453;-58
2023/04/05 00:42:05;;;;;;;17.50;15.80;;;;;;;4.89;61.71;102294.19;5112731;28;20043;-58
2023/04/05 00:44:33;;;;;;;16.88;13.20;;;;;;;4.88;62.16;102309.13;5116718;27;20572;-58
2023/04/05 00:47:03;;;;;;;16.88;15.25;;;;;;;4.62;62.56;102308.63;5116881;27;20020;-58
2023/04/05 00:49:30;;;;;;;13.38;11.80;;;;;;;4.91;61.97;102289.75;5094076;28;20025;-57
2023/04/05 00:52:01;;;;;;;17.58;15.73;;;;;;;4.55;63.56;102302.59;5101007;28;20390;-58
2023/04/05 00:54:28;;;;;;;14.93;13.55;;;;;;;4.82;63.09;102297.78;5114575;28;20028;-58
2023/04/05 00:57:02;;;;;;;17.10;15.30;;;;;;;4.71;63.43;102303.25;5117766;27;20027;-58
2023/04/05 00:59:27;;;;;;;15.18;13.52;;;;;;;4.87;62.54;102290.69;5134991;27;20466;-58
2023/04/05 01:02:01;;;;;;;14.35;12.95;;;;;;;4.83;62.34;102304.84;5133506;27;20038;-58
2023/04/05 01:04:30;;;;;;;17.08;14.45;;;;;;;4.69;63.17;102298.00;5130063;27;20028;-58
2023/04/05 01:07:06;;;;;;;17.85;13.43;;;;;;;4.54;63.67;102312.25;5114253;28;20016;-57
2023/04/05 01:09:43;;;;;;;16.15;14.40;;;;;;;4.57;63.51;102315.75;5114150;28;20043;-58
2023/04/05 01:12:15;;;;;;;17.38;14.82;;;;;;;4.50;64.00;102313.22;5093969;28;20027;-58
2023/04/05 01:14:44;;;;;;;15.55;14.07;;;;;;;4.41;63.91;102288.75;5079727;27;20031;-58
2023/04/05 01:17:10;;;;;;;17.05;14.10;;;;;;;4.43;63.53;102298.38;5095933;27;20063;-57
2023/04/05 01:19:40;;;;;;;15.63;14.20;;;;;;;4.28;64.47;102299.47;5095088;28;20051;-57
2023/04/05 01:22:36;;;;;;;16.42;14.10;;;;;;;4.34;63.69;102306.41;5114040;28;20023;-57
2023/04/05 01:25:05;;;;;;;15.13;13.50;;;;;;;4.15;65.02;102300.53;5094388;28;20036;-58
2023/04/05 01:27:44;;;;;;;14.43;12.98;;;;;;;4.25;64.29;102294.22;5095827;28;20026;-58
2023/04/05 01:30:17;;;;;;;15.18;13.70;;;;;;;4.15;64.56;102299.63;5113340;28;20090;-58
2023/04/05 01:33:05;;;;;;;17.33;13.98;;;;;;;4.21;63.78;102283.78;5113613;28;20084;-58
2023/04/05 01:35:49;;;;;;;15.35;13.75;;;;;;;4.04;64.80;102282.22;5115396;27;20023;-57
2023/04/05 01:38:21;;;;;;;16.05;14.23;;;;;;;3.90;65.42;102292.03;5113799;28;20098;-58
2023/04/05 01:40:47;;;;;;;15.32;13.25;;;;;;;3.98;65.10;102279.66;5113385;28;20356;-58
2023/04/05 01:43:14;;;;;;;15.55;14.05;;;;;;;3.90;65.21;102271.00;5113797;28;20023;-58
2023/04/05 01:45:40;;;;;;;16.80;14.73;;;;;;;3.91;64.99;102291.16;5113441;27;20027;-57
2023/04/05 01:48:06;;;;;;;17.10;13.60;;;;;;;3.85;64.99;102281.59;5115598;27;20025;-58
2023/04/05 01:50:31;;;;;;;16.63;14.93;;;;;;;3.74;65.52;102272.94;5133894;27;20393;-57
2023/04/05 01:52:57;;;;;;;17.20;15.50;;;;;;;3.72;65.67;102282.63;5131308;27;20076;-58
2023/04/05 01:55:22;;;;;;;15.68;14.00;;;;;;;3.84;65.60;102276.34;5133636;27;20023;-57
2023/04/05 01:57:47;;;;;;;14.60;13.20;;;;;;;3.77;64.90;102269.41;5115459;27;20029;-58
2023/04/05 02:00:13;;;;;;;17.23;13.70;;;;;;;3.70;65.60;102265.09;5114987;27;20023;-58
2023/04/05 02:02:39;;;;;;;14.30;12.88;;;;;;;3.76;65.60;102280.81;5132205;27;20023;-58
2023/04/05 02:05:04;;;;;;;16.35;13.82;;;;;;;3.72;65.25;102266.81;5133231;27;20027;-58
2023/04/05 02:07:30;;;;;;;16.08;14.25;;;;;;;3.76;64.92;102268.53;5111254;28;20377;-57
2023/04/05 02:09:55;;;;;;;14.68;13.10;;;;;;;3.68;65.37;102272.13;5111942;28;20020;-57
2023/04/05 02:12:21;;;;;;;15.38;13.65;;;;;;;3.55;65.87;102266.13;5103947;27;20497;-57
2023/04/05 02:14:47;;;;;;;15.18;13.57;;;;;;;3.52;65.87;102268.81;5109364;28;20019;-57
2023/04/05 02:17:12;;;;;;;15.32;13.82;;;;;;;3.53;65.99;102265.28;5093066;28;20107;-58
2023/04/05 02:19:40;;;;;;;17.27;14.07;;;;;;;3.50;65.63;102254.78;5111382;28;20024;-58
2023/04/05 02:22:07;;;;;;;16.00;13.95;;;;;;;3.52;65.82;102267.03;5093196;28;20028;-58
2023/04/05 02:24:32;;;;;;;17.20;13.63;;;;;;;3.56;65.98;102268.78;5111761;28;20034;-57
2023/04/05 02:26:58;;;;;;;16.42;13.93;;;;;;;3.45;66.27;102254.84;5111697;28;20023;-58
2023/04/05 02:29:23;;;;;;;15.90;14.27;;;;;;;3.40;66.25;102260.16;5112354;28;20051;-58
2023/04/05 02:31:48;;;;;;;17.27;13.90;;;;;;;3.49;65.83;102255.69;5098167;27;20027;-58
2023/04/05 02:34:14;;;;;;;18.17;13.70;;;;;;;3.46;66.45;102261.84;5116872;27;20023;-58
2023/04/05 02:36:40;;;;;;;15.07;13.35;;;;;;;3.48;66.10;102265.34;5111577;28;20028;-57
2023/04/05 02:39:06;;;;;;;15.52;13.80;;;;;;;3.39;66.67;102261.06;5092232;28;20473;-58
2023/04/05 02:41:32;;;;;;;14.65;12.95;;;;;;;3.37;65.98;102252.31;5090062;28;20048;-58
2023/04/05 02:43:58;;;;;;;16.20;14.40;;;;;;;3.27;66.31;102250.66;5087201;28;20031;-57
2023/04/05 02:46:24;;;;;;;14.65;13.10;;;;;;;3.33;66.29;102255.00;5101723;28;20410;-58
2023/04/05 02:48:49;;;;;;;16.88;14.13;;;;;;;3.31;66.36;102259.38;5112575;28;20029;-58
2023/04/05 02:51:15;;;;;;;15.27;13.80;;;;;;;3.19;66.90;102255.13;5110439;28;20030;-58
2023/04/05 02:53:41;;;;;;;15.75;13.57;;;;;;;3.03;67.23;102232.47;5110732;28;20102;-58
2023/04/05 02:56:06;;;;;;;18.45;13.63;;;;;;;2.96;67.89;102236.94;5092095;28;20055;-58
2023/04/05 02:58:32;;;;;;;21.55;14.48;;;;;;;2.98;67.90;102250.94;5111935;28;20486;-58
2023/04/05 03:01:00;;;;;;;14.25;12.77;;;;;;;3.06;67.63;102250.84;5107812;28;20020;-57
2023/04/05 03:03:30;;;;;;;16.33;14.65;;;;;;;3.07;67.94;102247.34;5108012;27;20102;-57
2023/04/05 03:06:00;;;;;;;15.07;13.23;;;;;;;3.04;67.66;102244.75;5099038;28;20059;-57
2023/04/05 03:08:27;;;;;;;18.42;12.57;;;;;;;3.12;67.49;102243.81;5094243;28;20024;-58
2023/04/05 03:10:53;;;;;;;18.02;14.25;;;;;;;3.08;68.17;102243.84;5100267;28;21010;-58
2023/04/05 03:13:18;;;;;;;15.65;13.10;;;;;;;2.98;68.10;102234.31;5098323;28;20032;-58
2023/04/05 03:15:43;;;;;;;16.65;14.30;;;;;;;2.96;67.85;102227.28;5111583;28;20100;-58
2023/04/05 03:18:09;;;;;;;18.05;14.13;;;;;;;3.07;67.94;102228.97;5112468;28;20020;-57
2023/04/05 03:20:39;;;;;;;14.77;13.18;;;;;;;2.85;68.04;102216.00;5103499;28;20036;-58
2023/04/05 03:23:08;;;;;;;14.18;12.60;;;;;;;2.92;68.20;102224.72;5106125;28;20036;-57
2023/04/05 03:25:36;;;;;;;16.52;13.52;;;;;;;2.89;68.74;102224.75;5107503;28;20032;-57
2023/04/05 03:28:07;;;;;;;14.40;12.70;;;;;;;2.89;68.27;102223.00;5089856;28;20045;-57
2023/04/05 03:30:33;;;;;;;15.57;13.45;;;;;;;2.76;68.68;102213.47;5109719;28;20080;-57
2023/04/05 03:33:02;;;;;;;18.98;13.70;;;;;;;2.78;68.67;102221.34;5113214;28;20024;-57
2023/04/05 03:35:28;;;;;;;14.83;12.50;;;;;;;2.83;68.48;102223.03;5130760;28;20054;-57
2023/04/05 03:37:56;;;;;;;16.80;13.48;;;;;;;2.68;68.89;102207.41;5132289;28;20478;-57
2023/04/05 03:40:24;;;;;;;15.60;13.93;;;;;;;2.77;68.44;102223.09;5132526;27;20027;-57
2023/04/05 03:42:50;;;;;;;17.67;13.68;;;;;;;2.70;69.07;102217.00;5135296;27;20047;-57
2023/04/05 03:45:15;;;;;;;17.23;13.68;;;;;;;2.79;68.94;102223.06;5115529;28;20031;-57
2023/04/05 03:47:41;;;;;;;16.23;13.57;;;;;;;2.65;69.08;102210.94;5115917;28;20043;-57
2023/04/05 03:50:10;;;;;;;17.77;14.20;;;;;;;2.65;69.13;102212.69;5116591;27;20019;-57
2023/04/05 03:52:35;;;;;;;17.05;13.57;;;;;;;2.63;69.18;102220.56;5115928;28;20431;-57
2023/04/05 03:55:01;;;;;;;16.70;13.75;;;;;;;2.62;68.93;102213.59;5098516;28;20019;-57
2023/04/05 03:57:29;;;;;;;16.02;12.57;;;;;;;2.59;68.97;102217.97;5115487;28;20046;-57
2023/04/05 03:59:55;;;;;;;15.15;13.63;;;;;;;2.55;69.20;102211.88;5115658;28;20092;-57
2023/04/05 04:02:21;;;;;;;20.80;13.35;;;;;;;2.49;69.39;102202.28;5115001;28;20046;-57
2023/04/05 04:04:46;;;;;;;16.25;13.10;;;;;;;2.51;69.46;102202.28;5134023;27;20381;-58
2023/04/05 04:07:13;;;;;;;17.10;14.48;;;;;;;2.51;69.30;102204.91;5116965;27;20027;-57
2023/04/05 04:09:38;;;;;;;19.35;13.18;;;;;;;2.39;69.28;102198.00;5117466;27;20054;-57
2023/04/05 04:12:04;;;;;;;17.15;13.70;;;;;;;2.46;69.15;102201.44;5115154;28;20043;-57
2023/04/05 04:14:29;;;;;;;13.65;12.23;;;;;;;2.52;69.43;102200.53;5116581;27;20527;-57
2023/04/05 04:16:55;;;;;;;14.48;13.02;;;;;;;2.48;69.10;102197.06;5096495;28;20051;-57
2023/04/05 04:19:20;;;;;;;14.38;12.73;;;;;;;2.49;69.20;102194.41;5115598;28;20019;-57
2023/04/05 04:21:50;;;;;;;17.00;13.33;;;;;;;2.47;69.22;102198.81;5115291;28;20024;-58
2023/04/05 04:24:19;;;;;;;;;;;;;;;2.61;67.35;102201.31;5130613;27;20373;-57
2023/04/05 04:26:45;;;;;;;16.85;11.75;;;;;;;2.46;68.80;102189.19;5135522;27;19911;-57
2023/04/05 04:29:17;;;;;;;20.50;13.43;;;;;;;2.40;69.06;102194.50;5135929;27;20019;-58
2023/04/05 04:31:44;;;;;;;16.03;13.73;;;;;;;2.35;69.54;102204.16;5116605;27;20025;-58
2023/04/05 04:34:11;;;;;;;16.83;13.37;;;;;;;2.32;69.51;102195.44;5126779;27;20024;-58
2023/04/05 04:36:38;;;;;;;16.70;13.35;;;;;;;2.25;70.08;102194.59;5129581;27;20050;-57
2023/04/05 04:39:07;;;;;;;21.87;12.83;;;;;;;2.22;70.04;102199.88;5135568;27;20019;-58
2023/04/05 04:41:34;;;;;;;16.83;11.90;;;;;;;2.28;70.07;102198.06;5115799;27;20047;-58
2023/04/05 04:44:01;;;;;;;14.57;12.83;;;;;;;2.23;69.95;102205.09;5119159;27;20474;-57
2023/04/05 04:46:33;;;;;;;15.47;13.03;;;;;;;2.20;70.42;102204.25;5096081;28;20020;-58
2023/04/05 04:49:04;;;;;;;14.43;12.17;;;;;;;2.22;70.32;102203.38;5114736;28;20042;-58
2023/04/05 04:51:34;;;;;;;17.37;13.47;;;;;;;2.16;70.08;102210.41;5096290;28;20031;-58
2023/04/05 04:53:59;;;;;;;17.10;12.35;;;;;;;2.16;69.86;102205.16;5113889;27;20019;-58
2023/04/05 04:56:27;;;;;;;16.37;12.90;;;;;;;2.14;70.43;102199.03;5099866;27;20410;-58
2023/04/05 04:58:55;;;;;;;20.75;13.18;;;;;;;2.18;70.06;102208.66;5094155;28;20020;-58
2023/04/05 05:01:21;;;;;;;15.50;13.40;;;;;;;2.07;70.62;102203.47;5099172;28;20123;-58
2023/04/05 05:03:47;;;;;;;16.30;13.45;;;;;;;2.11;70.63;102207.81;5126622;27;20024;-58
2023/04/05 05:06:16;;;;;;;15.25;13.27;;;;;;;2.12;70.54;102203.44;5096248;28;20031;-58
2023/04/05 05:08:41;;;;;;;17.85;13.85;;;;;;;2.01;70.60;102203.50;5096280;28;20092;-58
2023/04/05 05:11:07;;;;;;;17.63;12.93;;;;;;;1.97;71.03;102196.50;5113875;28;20482;-58
2023/04/05 05:13:32;;;;;;;19.70;13.97;;;;;;;1.98;70.82;102203.53;5111149;27;20031;-58
2023/04/05 05:15:59;;;;;;;14.70;12.67;;;;;;;1.99;70.82;102205.25;5113748;27;20024;-58
2023/04/05 05:18:24;;;;;;;16.33;12.93;;;;;;;1.98;71.38;102204.41;5095039;28;20019;-58
2023/04/05 05:20:52;;;;;;;15.73;13.30;;;;;;;1.93;71.31;102200.06;5110093;28;20443;-57
2023/04/05 05:23:20;;;;;;;16.97;14.30;;;;;;;1.95;71.36;102201.78;5121601;27;20478;-58
2023/04/05 05:25:46;;;;;;;17.40;12.50;;;;;;;2.02;71.45;102202.63;5133800;27;20027;-58
2023/04/05 05:28:11;;;;;;;17.33;13.43;;;;;;;2.00;71.14;102197.41;5134567;27;20378;-58
2023/04/05 05:30:36;;;;;;;16.33;13.50;;;;;;;1.89;71.80;102191.34;5115275;27;20126;-58
2023/04/05 05:33:02;;;;;;;16.10;13.53;;;;;;;1.91;72.01;102196.56;5132506;27;20075;-58
2023/04/05 05:35:30;;;;;;;17.07;12.70;;;;;;;1.97;71.81;102197.41;5097663;28;20466;-58
2023/04/05 05:37:55;;;;;;;17.57;13.63;;;;;;;2.00;71.55;102201.75;5113509;28;20059;-58
2023/04/05 05:40:21;;;;;;;17.63;13.97;;;;;;;1.98;71.99;102198.28;5113153;28;20100;-58
2023/04/05 05:42:48;;;;;;;21.63;14.13;;;;;;;1.99;72.38;102190.38;5105268;27;20043;-58
2023/04/05 05:45:14;;;;;;;15.83;13.20;;;;;;;2.06;72.31;102193.88;5111500;28;20024;-58
2023/04/05 05:47:40;;;;;;;19.63;14.20;;;;;;;2.07;72.03;102189.47;5102229;28;20028;-58
2023/04/05 05:50:09;;;;;;;15.63;12.77;;;;;;;2.12;72.41;102191.19;5092715;28;20097;-58
2023/04/05 05:52:34;;;;;;;18.57;14.73;;;;;;;2.14;72.15;102188.56;5092508;28;20016;-58
2023/04/05 05:55:03;;;;;;;22.60;14.50;;;;;;;2.15;72.38;102190.31;5109101;27;20073;-58
2023/04/05 05:57:28;;;;;;;15.57;13.90;;;;;;;2.20;72.57;102196.38;5104010;28;20020;-58
2023/04/05 05:59:53;;;;;;;17.70;14.63;;;;;;;2.24;73.03;102195.50;5094472;28;20470;-58
2023/04/05 06:02:19;;;;;;;19.90;14.40;;;;;;;2.28;72.13;102198.06;5094311;28;20019;-58
2023/04/05 06:04:44;;;;;;;18.53;13.83;;;;;;;2.26;73.01;102197.25;5113702;27;20073;-58
2023/04/05 06:07:11;;;;;;;25.43;17.10;;;;;;;2.30;73.26;102199.84;5106242;28;20026;-58
2023/04/05 06:09:36;;;;;;;20.75;15.98;;;;;;;2.23;73.08;102180.63;5111928;28;20027;-58
2023/04/05 06:12:02;;;;;;;18.90;16.63;;;;;;;2.33;73.63;102191.94;5112850;28;20187;-58
2023/04/05 06:14:28;;;;;;;19.43;15.80;;;;;;;2.35;73.81;102198.91;5111609;28;20046;-58
2023/04/05 06:16:54;;;;;;;20.58;15.52;;;;;;;2.35;74.35;102191.00;5111999;28;20462;-58
2023/04/05 06:19:20;;;;;;;23.40;17.17;;;;;;;2.43;73.98;102211.97;5094665;28;20026;-58
2023/04/05 06:21:45;;;;;;;18.50;16.50;;;;;;;2.38;74.69;102204.16;5092822;28;20023;-58
2023/04/05 06:24:11;;;;;;;23.10;17.63;;;;;;;2.46;74.39;102207.56;5112109;28;20027;-58
2023/04/05 06:26:36;;;;;;;18.03;16.13;;;;;;;2.57;74.11;102204.00;5095438;28;20425;-58
2023/04/05 06:29:01;;;;;;;18.07;15.37;;;;;;;2.63;74.02;102201.31;5112618;28;20438;-58
2023/04/05 06:31:32;;;;;;;21.27;16.50;;;;;;;2.72;74.13;102214.38;5092074;28;20051;-58
2023/04/05 06:33:57;;;;;;;24.58;17.60;;;;;;;2.80;73.10;102199.44;5105371;28;20028;-58
2023/04/05 06:36:23;;;;;;;21.23;16.45;;;;;;;3.05;70.69;102204.44;5099707;27;20042;-58
2023/04/05 06:38:50;;;;;;;22.70;18.25;;;;;;;2.95;72.24;102191.41;5115486;27;20031;-58
2023/04/05 06:41:18;;;;;;;22.13;16.35;;;;;;;3.21;71.28;102200.78;5124607;27;20065;-58
2023/04/05 06:43:43;;;;;;;20.70;17.25;;;;;;;3.32;70.58;102201.50;5115758;27;20016;-58
2023/04/05 06:46:11;;;;;;;23.67;17.20;;;;;;;3.44;68.25;102200.50;5104432;28;20474;-58
2023/04/05 06:48:36;;;;;;;22.23;17.65;;;;;;;3.56;69.40;102204.75;5112501;27;20059;-58
2023/04/05 06:51:02;;;;;;;25.08;17.23;;;;;;;3.76;66.95;102207.13;5099327;28;20172;-59
2023/04/05 06:53:29;;;;;;;24.45;16.92;;;;;;;3.93;65.03;102206.91;5092064;28;20016;-58
2023/04/05 06:55:55;;;;;;;22.42;17.35;;;;;;;4.09;67.17;102211.09;5091756;28;20529;-58
2023/04/05 06:58:24;;;;;;;24.33;17.83;;;;;;;4.33;63.63;102207.22;5106934;28;20486;-58
2023/04/05 07:00:52;;;;;;;23.08;17.77;;;;;;;4.43;63.97;102207.94;5111689;28;20027;-58
2023/04/05 07:03:18;;;;;;;20.83;16.25;;;;;;;4.53;61.12;102209.56;5107709;28;20034;-59
2023/04/05 07:05:51;;;;;;;22.40;17.23;;;;;;;4.60;63.40;102210.31;5094521;28;20378;-58
2023/04/05 07:08:18;;;;;;;23.63;17.25;;;;;;;4.81;60.19;102215.22;5101299;28;20024;-58
2023/04/05 07:10:44;;;;;;;23.17;16.70;;;;;;;4.92;59.44;102210.66;5113106;28;20428;-58
2023/04/05 07:13:12;;;;;;;21.65;17.30;;;;;;;5.05;59.93;102210.41;5110082;28;20027;-58
2023/04/05 07:15:37;;;;;;;23.88;16.63;;;;;;;5.18;57.93;102211.94;5109890;28;20122;-57
2023/04/05 07:18:05;;;;;;;19.95;17.55;;;;;;;5.32;58.60;102217.81;5117282;27;20095;-58
2023/04/05 07:20:31;;;;;;;19.67;16.45;;;;;;;5.45;56.93;102211.41;5097879;28;20024;-58
2023/04/05 07:22:57;;;;;;;21.90;18.58;;;;;;;5.50;57.57;102205.16;5114440;28;20203;-58
2023/04/05 07:25:23;;;;;;;22.45;18.25;;;;;;;5.45;56.16;102207.91;5097941;28;20011;-58
2023/04/05 07:27:48;;;;;;;23.42;18.08;;;;;;;5.40;56.37;102213.25;5116320;28;20466;-58
2023/04/05 07:30:14;;;;;;;21.88;19.58;;;;;;;5.67;57.12;102214.47;5095477;28;20046;-58
2023/04/05 07:32:42;;;;;;;19.52;17.50;;;;;;;5.80;56.80;102207.19;5104167;27;20027;-58
2023/04/05 07:35:07;;;;;;;20.83;18.65;;;;;;;6.07;55.89;102191.66;5130448;27;20486;-58
2023/04/05 07:37:33;;;;;;;21.85;18.65;;;;;;;6.10;54.84;102199.53;5113360;28;20038;-57
2023/04/05 07:40:01;;;;;;;22.10;17.95;;;;;;;6.33;54.16;102199.84;5116751;27;20059;-58
2023/04/05 07:42:27;;;;;;;29.13;18.90;;;;;;;6.53;53.56;102201.13;5095226;28;20243;-59
2023/04/05 07:44:52;;;;;;;20.25;18.05;;;;;;;6.67;54.58;102204.31;5113942;28;20024;-58
2023/04/05 07:47:18;;;;;;;22.38;17.58;;;;;;;6.74;52.93;102200.63;5114484;27;20011;-58
2023/04/05 07:49:45;;;;;;;20.42;18.15;;;;;;;6.70;52.33;102204.22;5097946;27;20027;-58
2023/04/05 07:52:11;;;;;;;20.83;18.30;;;;;;;6.69;52.50;102199.88;5110155;28;20107;-58
2023/04/05 07:54:41;;;;;;;19.83;17.88;;;;;;;6.89;52.72;102195.84;5115098;28;20027;-58
2023/04/05 07:57:07;;;;;;;20.00;17.77;;;;;;;7.06;53.12;102196.28;5115007;28;20015;-58
2023/04/05 07:59:33;;;;;;;19.60;17.58;;;;;;;7.23;52.10;102199.31;5115152;28;20016;-58
2023/04/05 08:01:58;;;;;;;18.95;16.73;;;;;;;7.34;51.13;102200.81;5113514;27;20099;-58
2023/04/05 08:04:25;;;;;;;21.70;16.73;;;;;;;7.50;50.90;102202.13;5114719;28;20420;-58
2023/04/05 08:06:51;;;;;;;17.80;16.08;;;;;;;7.47;48.60;102204.84;5110610;27;20015;-58
2023/04/05 08:09:16;;;;;;;19.17;15.80;;;;;;;7.64;48.86;102207.00;5100199;28;20046;-58
2023/04/05 08:11:42;;;;;;;19.30;15.95;;;;;;;7.54;48.02;102184.38;5112597;27;20016;-58
2023/04/05 08:14:08;;;;;;;18.48;16.58;;;;;;;7.76;47.90;102195.19;5096694;28;20102;-58
2023/04/05 08:16:33;;;;;;;18.80;15.63;;;;;;;7.88;47.45;102198.38;5095682;28;20024;-58
2023/04/05 08:18:59;;;;;;;24.92;16.02;;;;;;;8.06;47.11;102196.94;5112268;28;20390;-58
2023/04/05 08:21:25;;;;;;;19.23;16.60;;;;;;;7.96;47.21;102196.31;5095617;27;20216;-58
2023/04/05 08:23:50;;;;;;;18.90;16.70;;;;;;;7.98;47.11;102196.28;5094436;28;20030;-57
2023/04/05 08:26:16;;;;;;;17.63;15.68;;;;;;;8.08;46.47;102184.47;5113154;28;20027;-58
2023/04/05 08:28:44;;;;;;;19.23;15.30;;;;;;;8.33;46.39;102183.72;5111499;28;20023;-58
2023/04/05 08:31:10;;;;;;;19.65;14.75;;;;;;;8.56;44.90;102194.47;5096300;28;20047;-58
2023/04/05 08:33:36;;;;;;;17.02;14.52;;;;;;;8.78;44.54;102189.31;5116030;27;20030;-58
2023/04/05 08:36:06;;;;;;;23.02;14.30;;;;;;;8.79;44.43;102203.44;5094575;28;20474;-58
2023/04/05 08:38:31;;;;;;;14.95;13.13;;;;;;;9.11;44.75;102197.03;5085961;28;20039;-58
2023/04/05 08:41:06;;;;;;;13.18;12.02;;;;;;;9.20;43.72;102196.69;5114398;28;20055;-58
2023/04/05 08:43:50;;;;;;;15.13;13.57;;;;;;;9.24;43.95;102195.69;5094510;28;20107;-58
2023/04/05 08:46:17;;;;;;;13.75;12.50;;;;;;;9.42;42.03;102196.81;5094874;28;20311;-58
2023/04/05 08:48:43;;;;;;;14.55;12.77;;;;;;;9.46;42.95;102187.78;5090671;28;20119;-58
2023/04/05 08:51:09;;;;;;;13.38;11.95;;;;;;;9.58;39.48;102196.22;5094339;28;20104;-58
2023/04/05 08:53:35;;;;;;;14.98;12.95;;;;;;;9.76;40.50;102193.78;5114018;27;20012;-58
2023/04/05 08:56:01;;;;;;;12.98;11.52;;;;;;;9.80;40.49;102194.50;5110896;28;20042;-58
2023/04/05 08:58:27;;;;;;;13.23;11.80;;;;;;;9.89;38.58;102194.16;5076004;28;20035;-59
2023/04/05 09:00:57;;;;;;;12.98;11.68;;;;;;;9.99;38.06;102195.50;5095781;27;20394;-59
2023/04/05 09:03:25;;;;;;;13.95;11.50;;;;;;;10.18;39.18;102193.00;5127740;27;20803;-59
2023/04/05 09:05:52;;;;;;;13.73;12.32;;;;;;;10.24;39.76;102187.44;5111702;28;20031;-59
2023/04/05 09:08:20;;;;;;;13.88;12.07;;;;;;;10.33;39.24;102190.72;5114158;28;20122;-59
2023/04/05 09:10:48;;;;;;;13.60;12.15;;;;;;;10.47;39.24;102185.69;5107810;28;20082;-59
2023/04/05 09:13:14;;;;;;;12.95;11.57;;;;;;;10.48;38.87;102187.41;5094728;28;20027;-58
2023/04/05 09:15:40;;;;;;;15.63;13.15;;;;;;;10.54;38.04;102181.84;5113249;28;20024;-59
2023/04/05 09:18:05;;;;;;;14.88;13.27;;;;;;;10.62;39.31;102168.22;5094724;28;20020;-59
2023/04/05 09:20:30;;;;;;;14.65;13.07;;;;;;;10.87;37.61;102179.53;5113752;28;20060;-59
2023/04/05 09:22:56;;;;;;;15.50;13.90;;;;;;;10.81;38.84;102168.31;5115328;27;20096;-59
2023/04/05 09:25:30;;;;;;;15.00;13.43;;;;;;;11.10;39.34;102181.22;5128692;27;20050;-59
2023/04/05 09:27:56;;;;;;;14.52;13.13;;;;;;;11.14;37.20;102173.94;5110596;28;20015;-58
2023/04/05 09:30:22;;;;;;;15.25;13.63;;;;;;;11.36;38.08;102168.53;5088291;28;20427;-59
2023/04/05 09:32:53;;;;;;;13.48;12.00;;;;;;;11.31;34.66;102174.06;5095262;28;20069;-58
2023/04/05 09:35:21;;;;;;;16.92;11.57;;;;;;;11.52;36.06;102158.03;5112595;28;20102;-59
2023/04/05 09:38:07;;;;;;;13.35;12.15;;;;;;;11.53;35.90;102155.31;5077106;28;20060;-58
2023/04/05 09:40:48;;;;;;;14.00;12.13;;;;;;;11.86;36.50;102180.50;5093506;27;20571;-59
2023/04/05 09:43:40;;;;;;;13.30;12.10;;;;;;;11.82;35.34;102169.06;5094176;28;20435;-59
2023/04/05 09:46:06;;;;;;;15.13;12.38;;;;;;;11.98;35.96;102167.44;5091675;28;20028;-59
2023/04/05 09:48:50;;;;;;;21.15;13.10;;;;;;;12.18;35.29;102168.31;5111294;27;20072;-59
2023/04/05 09:51:16;;;;;;;14.18;12.75;;;;;;;12.20;33.68;102161.94;5092368;27;20050;-58
2023/04/05 09:53:58;;;;;;;13.10;11.75;;;;;;;12.49;36.15;102168.50;5100113;28;20394;-58
2023/04/05 09:56:25;;;;;;;13.40;12.20;;;;;;;12.59;34.79;102166.25;5104076;28;20490;-59
2023/04/05 09:58:51;;;;;;;14.70;13.13;;;;;;;12.75;34.75;102162.81;5095101;28;20470;-58
2023/04/05 10:01:16;;;;;;;15.23;12.93;;;;;;;12.81;34.37;102160.69;5109748;28;20035;-58
2023/04/05 10:03:48;;;;;;;14.45;12.77;;;;;;;12.91;33.86;102163.72;5113348;28;20102;-58
2023/04/05 10:06:17;;;;;;;14.30;12.98;;;;;;;13.10;32.75;102159.16;5094927;28;20035;-59
2023/04/05 10:08:46;;;;;;;15.85;11.85;;;;;;;13.04;31.86;102156.81;5111032;28;20061;-59
2023/04/05 10:11:12;;;;;;;16.00;13.07;;;;;;;13.28;32.92;102157.34;5104644;27;20522;-58
2023/04/05 10:13:39;;;;;;;15.73;14.10;;;;;;;13.28;32.48;102153.81;5094722;28;20019;-58
2023/04/05 10:16:09;;;;;;;14.65;12.73;;;;;;;13.41;32.16;102149.53;5110530;28;20027;-59
2023/04/05 10:18:47;;;;;;;14.88;13.38;;;;;;;13.47;33.07;102143.88;5113020;28;20024;-58
2023/04/05 10:21:17;;;;;;;14.23;12.80;;;;;;;13.19;31.13;102144.47;5124505;27;20027;-58
2023/04/05 10:23:45;;;;;;;13.73;11.93;;;;;;;13.17;31.82;102141.00;5113046;27;20446;-59
2023/04/05 10:26:31;;;;;;;15.35;13.77;;;;;;;13.22;32.10;102144.28;5112626;28;20019;-58
2023/04/05 10:29:08;;;;;;;14.77;13.27;;;;;;;13.27;30.39;102139.59;5088797;28;20027;-59
2023/04/05 10:31:49;;;;;;;14.45;13.00;;;;;;;13.49;32.21;102139.28;5112478;27;20040;-59
2023/04/05 10:34:38;;;;;;;15.05;13.68;;;;;;;13.47;33.07;102134.97;5090780;28;20501;-59
2023/04/05 10:37:05;;;;;;;14.13;12.82;;;;;;;13.26;31.03;102127.16;5099416;28;20039;-58
2023/04/05 10:39:41;;;;;;;14.10;12.77;;;;;;;13.44;31.79;102130.66;5092220;28;20474;-58
2023/04/05 10:42:15;;;;;;;14.68;12.90;;;;;;;13.73;31.12;102133.53;5121111;27;20048;-58
2023/04/05 10:44:44;;;;;;;14.90;13.32;;;;;;;13.67;31.43;102132.06;5088860;28;20110;-58
2023/04/05 10:47:14;;;;;;;15.77;12.63;;;;;;;13.60;30.06;102126.22;5105879;28;20517;-58
2023/04/05 10:49:43;;;;;;;16.00;13.25;;;;;;;14.22;29.90;102123.59;5109133;28;20027;-58
2023/04/05 10:52:09;;;;;;;15.43;13.77;;;;;;;14.45;30.41;102121.41;5101425;28;20028;-58
2023/04/05 10:54:35;;;;;;;15.25;13.65;;;;;;;14.36;30.73;102109.41;5100357;27;20101;-58
2023/04/05 10:57:08;;;;;;;14.20;12.60;;;;;;;14.59;30.78;102121.47;5107180;28;20028;-58
2023/04/05 10:59:35;;;;;;;14.70;13.10;;;;;;;14.58;30.28;102110.84;5106969;28;20031;-58
2023/04/05 11:02:02;;;;;;;14.25;12.75;;;;;;;14.59;30.85;102105.41;5086808;28;20035;-58
2023/04/05 11:04:28;;;;;;;14.63;13.07;;;;;;;14.71;29.40;102101.13;5110116;28;20035;-58
2023/04/05 11:07:41;;;;;;;14.43;12.85;;;;;;;15.29;32.45;102099.34;5105707;28;20019;-57
2023/04/05 11:10:16;;;;;;;14.98;12.90;;;;;;;15.34;30.21;102100.78;5020107;28;20154;-58
2023/04/05 11:12:45;;;;;;;15.00;12.75;;;;;;;15.62;28.38;102096.38;5090003;28;20062;-58
2023/04/05 11:15:29;;;;;;;16.05;13.02;;;;;;;15.39;28.83;102089.78;5110064;28;20047;-58
2023/04/05 11:18:19;;;;;;;14.05;12.68;;;;;;;15.45;29.69;102094.75;5104055;28;20032;-58
2023/04/05 11:20:54;;;;;;;13.98;12.57;;;;;;;15.55;29.56;102095.88;5099403;28;20028;-58